createdAt,value
2022-09-01T00:00:18.686Z,19.60
2022-09-01T00:05:23.362Z,19.60
2022-09-01T00:10:26.658Z,19.50
2022-09-01T00:15:29.695Z,19.40
2022-09-01T00:20:34.281Z,19.30
2022-09-01T00:25:37.290Z,19.20
2022-09-01T00:30:40.916Z,19.10
2022-09-01T00:35:45.414Z,19.00
2022-09-01T00:40:49.311Z,18.90
2022-09-01T00:45:52.794Z,18.70
2022-09-01T00:50:57.898Z,18.60
2022-09-01T00:56:01.516Z,18.50
2022-09-01T01:01:05.473Z,18.40
2022-09-01T01:06:11.084Z,18.40
2022-09-01T01:11:17.852Z,18.30
2022-09-01T01:16:21.282Z,18.20
2022-09-01T01:21:48.030Z,18.20
2022-09-01T01:26:52.562Z,18.10
2022-09-01T01:31:55.679Z,18.10
2022-09-01T01:37:01.665Z,18.00
2022-09-01T01:42:09.459Z,18.00
2022-09-01T01:47:17.823Z,18.00
2022-09-01T01:52:21.172Z,17.90
2022-09-01T01:57:33.023Z,17.90
2022-09-01T02:02:38.148Z,17.80
2022-09-01T02:07:43.617Z,17.80
2022-09-01T02:12:49.295Z,17.70
2022-09-01T02:17:54.840Z,17.70
2022-09-01T02:22:58.312Z,17.70
2022-09-01T02:28:04.112Z,17.60
2022-09-01T02:33:09.123Z,17.70
2022-09-01T02:38:14.053Z,17.60
2022-09-01T02:43:20.597Z,17.60
2022-09-01T02:48:29.045Z,17.60
2022-09-01T02:53:34.607Z,17.60
2022-09-01T02:58:46.395Z,17.50
2022-09-01T03:03:51.067Z,17.50
2022-09-01T03:08:56.548Z,17.40
2022-09-01T03:14:01.886Z,17.40
2022-09-01T03:19:08.865Z,17.30
2022-09-01T03:24:15.227Z,17.20
2022-09-01T03:29:20.386Z,17.20
2022-09-01T03:34:23.620Z,17.10
2022-09-01T03:39:29.713Z,17.10
2022-09-01T03:44:40.360Z,17.00
2022-09-01T03:49:43.635Z,17.00
2022-09-01T03:54:46.643Z,17.00
2022-09-01T03:59:51.619Z,16.90
2022-09-01T04:04:59.015Z,16.90
2022-09-01T04:10:02.035Z,16.80
2022-09-01T04:15:09.150Z,16.70
2022-09-01T04:20:15.311Z,16.70
2022-09-01T04:25:25.221Z,16.60
2022-09-01T04:30:33.706Z,16.60
2022-09-01T04:35:39.184Z,16.50
2022-09-01T04:40:43.130Z,16.50
2022-09-01T04:45:52.014Z,16.40
2022-09-01T04:50:56.651Z,16.40
2022-09-01T04:56:07.527Z,16.30
2022-09-01T05:01:20.435Z,16.30
2022-09-01T05:06:24.165Z,16.30
2022-09-01T05:11:37.437Z,16.30
2022-09-01T05:16:48.315Z,16.20
2022-09-01T05:21:51.782Z,16.20
2022-09-01T05:26:54.776Z,16.30
2022-09-01T05:32:00.372Z,16.20
2022-09-01T05:37:03.360Z,16.20
2022-09-01T05:42:08.086Z,16.20
2022-09-01T05:47:20.870Z,16.10
2022-09-01T05:52:26.658Z,16.10
2022-09-01T05:57:35.344Z,16.10
2022-09-01T06:02:40.984Z,16.20
2022-09-01T06:07:45.415Z,16.10
2022-09-01T06:12:50.447Z,16.20
2022-09-01T06:17:59.197Z,16.20
2022-09-01T06:23:03.057Z,16.20
2022-09-01T06:28:08.511Z,16.20
2022-09-01T06:33:14.112Z,16.30
2022-09-01T06:38:22.608Z,16.30
2022-09-01T06:43:25.713Z,16.50
2022-09-01T06:48:31.030Z,16.60
2022-09-01T06:53:45.972Z,16.80
2022-09-01T06:58:54.249Z,17.00
2022-09-01T07:03:59.305Z,17.30
2022-09-01T07:09:47.006Z,17.50
2022-09-01T07:20:23.813Z,17.80
2022-09-01T07:25:34.923Z,18.00
2022-09-01T07:36:30.482Z,18.20
2022-09-01T07:52:55.020Z,18.60
2022-09-01T07:57:59.471Z,18.70
2022-09-01T08:03:03.415Z,18.80
2022-09-01T08:08:27.954Z,18.90
2022-09-01T08:13:32.262Z,19.10
2022-09-01T08:18:53.103Z,19.30
2022-09-01T08:24:20.190Z,19.50
2022-09-01T08:29:23.484Z,19.60
2022-09-01T08:34:26.902Z,19.80
2022-09-01T08:39:32.793Z,19.90
2022-09-01T08:44:43.307Z,20.10
2022-09-01T08:49:49.860Z,20.20
2022-09-01T08:55:05.498Z,20.40
2022-09-01T09:00:11.475Z,20.60
2022-09-01T09:05:29.141Z,20.90
2022-09-01T09:10:43.565Z,21.10
2022-09-01T09:15:53.115Z,21.30
2022-09-01T09:20:56.615Z,21.40
2022-09-01T09:26:01.164Z,21.60
2022-09-01T09:31:26.911Z,21.80
2022-09-01T09:36:36.559Z,22.10
2022-09-01T09:41:42.455Z,22.40
2022-09-01T09:46:47.659Z,22.60
2022-09-01T09:51:52.506Z,22.80
2022-09-01T09:57:13.368Z,23.00
2022-09-01T10:02:27.996Z,23.30
2022-09-01T10:07:34.621Z,23.60
2022-09-01T10:12:39.437Z,24.00
2022-09-01T10:17:45.358Z,24.20
2022-09-01T10:22:51.281Z,24.50
2022-09-01T10:28:00.789Z,24.80
2022-09-01T10:33:12.141Z,25.10
2022-09-01T10:38:25.167Z,25.40
2022-09-01T10:43:44.101Z,25.70
2022-09-01T10:48:55.278Z,26.00
2022-09-01T10:54:02.221Z,26.20
2022-09-01T11:05:08.636Z,26.70
2022-09-01T11:10:35.257Z,27.00
2022-09-01T11:15:43.261Z,27.20
2022-09-01T11:20:48.556Z,27.40
2022-09-01T11:31:23.957Z,27.80
2022-09-01T11:36:31.405Z,27.90
2022-09-01T11:41:43.464Z,28.00
2022-09-01T11:46:49.548Z,28.00
2022-09-01T11:51:52.587Z,28.10
2022-09-01T11:56:55.580Z,28.20
2022-09-01T12:02:00.256Z,28.30
2022-09-01T12:07:08.092Z,28.50
2022-09-01T12:12:33.043Z,28.70
2022-09-01T12:17:37.431Z,28.90
2022-09-01T12:22:44.433Z,28.90
2022-09-01T12:27:47.596Z,28.80
2022-09-01T12:32:52.233Z,28.70
2022-09-01T12:38:17.591Z,28.60
2022-09-01T12:43:34.051Z,28.50
2022-09-01T12:48:40.528Z,28.30
2022-09-01T12:53:53.020Z,28.20
2022-09-01T12:59:14.146Z,28.10
2022-09-01T13:04:28.417Z,28.10
2022-09-01T13:09:31.374Z,28.00
2022-09-01T13:14:34.284Z,27.80
2022-09-01T13:19:39.177Z,27.70
2022-09-01T13:24:42.099Z,27.60
2022-09-01T13:29:46.142Z,27.70
2022-09-01T13:34:52.003Z,27.70
2022-09-01T13:39:54.987Z,27.80
2022-09-01T13:44:57.907Z,27.80
2022-09-01T13:50:08.358Z,27.90
2022-09-01T13:55:15.623Z,28.00
2022-09-01T14:00:24.203Z,27.90
2022-09-01T14:05:31.249Z,27.80
2022-09-01T14:10:35.018Z,27.70
2022-09-01T14:15:38.160Z,27.70
2022-09-01T14:20:45.295Z,27.70
2022-09-01T14:25:50.634Z,27.80
2022-09-01T14:35:56.822Z,28.20
2022-09-01T14:40:59.863Z,28.30
2022-09-01T14:46:06.666Z,28.50
2022-09-01T14:51:10.959Z,28.70
2022-09-01T14:56:18.081Z,28.80
2022-09-01T15:01:34.167Z,29.00
2022-09-01T15:06:39.447Z,29.10
2022-09-01T15:11:44.221Z,29.20
2022-09-01T15:16:48.663Z,29.30
2022-09-01T15:21:52.989Z,29.50
2022-09-01T15:26:55.975Z,29.60
2022-09-01T15:31:58.918Z,29.70
2022-09-01T15:37:03.221Z,29.70
2022-09-01T15:42:06.773Z,29.70
2022-09-01T15:47:10.405Z,29.70
2022-09-01T15:52:14.740Z,29.60
2022-09-01T15:57:18.409Z,29.60
2022-09-01T16:02:23.478Z,29.70
2022-09-01T16:07:27.969Z,29.70
2022-09-01T16:12:31.606Z,29.80
2022-09-01T16:17:49.046Z,29.90
2022-09-01T16:22:57.564Z,29.90
2022-09-01T16:28:04.133Z,29.80
2022-09-01T16:33:19.843Z,29.80
2022-09-01T16:38:34.350Z,29.90
2022-09-01T16:43:42.204Z,29.90
2022-09-01T16:48:50.278Z,29.90
2022-09-01T16:54:12.101Z,29.90
2022-09-01T16:59:25.095Z,29.80
2022-09-01T17:04:35.765Z,29.70
2022-09-01T17:09:42.950Z,29.60
2022-09-01T17:14:52.035Z,29.50
2022-09-01T17:19:55.277Z,29.40
2022-09-01T17:30:12.412Z,29.30
2022-09-01T17:35:23.403Z,29.10
2022-09-01T17:40:35.135Z,29.00
2022-09-01T17:45:51.360Z,28.80
2022-09-01T17:51:04.033Z,28.60
2022-09-01T17:56:24.547Z,28.40
2022-09-01T18:01:33.970Z,28.20
2022-09-01T18:06:44.362Z,28.00
2022-09-01T18:11:53.898Z,27.90
2022-09-01T18:17:03.428Z,27.80
2022-09-01T18:22:10.395Z,27.60
2022-09-01T18:27:14.748Z,27.30
2022-09-01T18:32:28.128Z,27.10
2022-09-01T18:37:38.702Z,26.90
2022-09-01T18:42:48.963Z,26.70
2022-09-01T18:48:00.274Z,26.50
2022-09-01T18:53:17.699Z,26.20
2022-09-01T18:58:33.346Z,26.00
2022-09-01T19:03:42.591Z,25.70
2022-09-01T19:09:04.171Z,25.50
2022-09-01T19:14:16.135Z,25.30
2022-09-01T19:19:29.295Z,25.10
2022-09-01T19:24:37.216Z,25.00
2022-09-01T19:29:47.769Z,24.90
2022-09-01T19:34:56.684Z,24.70
2022-09-01T19:40:00.961Z,24.60
2022-09-01T19:45:09.500Z,24.50
2022-09-01T19:50:18.510Z,24.40
2022-09-01T19:55:30.986Z,24.30
2022-09-01T20:00:50.734Z,24.10
2022-09-01T20:05:58.108Z,24.00
2022-09-01T20:11:05.336Z,23.80
2022-09-01T20:16:17.076Z,23.60
2022-09-01T20:21:21.670Z,23.50
2022-09-01T20:26:31.977Z,23.30
2022-09-01T20:31:40.295Z,23.20
2022-09-01T20:36:48.900Z,23.00
2022-09-01T20:41:58.372Z,22.90
2022-09-01T20:47:04.949Z,22.70
2022-09-01T20:52:14.921Z,22.60
2022-09-01T20:57:30.226Z,22.40
2022-09-01T21:02:47.329Z,22.30
2022-09-01T21:08:01.720Z,22.20
2022-09-01T21:13:13.554Z,22.20
2022-09-01T21:18:36.152Z,22.10
2022-09-01T21:23:39.083Z,22.10
2022-09-01T21:28:45.055Z,22.00
2022-09-01T21:33:52.486Z,22.00
2022-09-01T21:38:55.437Z,22.00
2022-09-01T21:43:58.456Z,21.90
2022-09-01T21:49:02.956Z,21.90
2022-09-01T21:54:05.999Z,21.80
2022-09-01T21:59:11.384Z,21.70
2022-09-01T22:04:17.672Z,21.70
2022-09-01T22:09:21.854Z,21.60
2022-09-01T22:14:26.425Z,21.50
2022-09-01T22:19:33.223Z,21.40
2022-09-01T22:24:36.235Z,21.30
2022-09-01T22:29:39.450Z,21.20
2022-09-01T22:34:43.861Z,21.10
2022-09-01T22:39:47.076Z,21.00
2022-09-01T22:44:50.068Z,21.00
2022-09-01T22:49:55.266Z,20.90
2022-09-01T22:54:58.585Z,20.80
2022-09-01T23:00:02.449Z,20.70
2022-09-01T23:05:08.138Z,20.60
2022-09-01T23:10:11.640Z,20.40
2022-09-01T23:15:14.917Z,20.30
2022-09-01T23:20:19.810Z,20.20
2022-09-01T23:25:24.247Z,20.10
2022-09-01T23:30:27.210Z,20.10
2022-09-01T23:35:31.670Z,20.00
2022-09-01T23:40:34.640Z,19.90
2022-09-01T23:45:40.604Z,19.80
2022-09-01T23:50:46.431Z,19.70
2022-09-01T23:55:51.616Z,19.70
